createdAt,value
2022-10-18T00:02:04.185Z,100.00
2022-10-18T00:04:30.824Z,100.00
2022-10-18T00:06:57.284Z,100.00
2022-10-18T00:09:23.705Z,100.00
2022-10-18T00:11:50.505Z,100.00
2022-10-18T00:14:17.058Z,100.00
2022-10-18T00:16:43.534Z,100.00
2022-10-18T00:19:09.917Z,100.00
2022-10-18T00:21:36.587Z,100.00
2022-10-18T00:24:03.339Z,100.00
2022-10-18T00:26:30.743Z,100.00
2022-10-18T00:29:02.789Z,100.00
2022-10-18T00:31:35.434Z,100.00
2022-10-18T00:34:07.248Z,100.00
2022-10-18T00:36:34.445Z,100.00
2022-10-18T00:39:02.382Z,100.00
2022-10-18T00:41:31.050Z,100.00
2022-10-18T00:44:21.691Z,100.00
2022-10-18T00:46:49.284Z,100.00
2022-10-18T00:49:20.501Z,100.00
2022-10-18T00:51:51.272Z,100.00
2022-10-18T00:54:19.347Z,100.00
2022-10-18T00:56:46.010Z,100.00
2022-10-18T00:59:14.985Z,100.00
2022-10-18T01:01:41.635Z,100.00
2022-10-18T01:04:08.135Z,100.00
2022-10-18T01:06:41.681Z,100.00
2022-10-18T01:09:32.185Z,100.00
2022-10-18T01:12:21.048Z,100.00
2022-10-18T01:15:21.772Z,100.00
2022-10-18T01:18:00.014Z,100.00
2022-10-18T01:20:57.044Z,100.00
2022-10-18T01:23:59.672Z,100.00
2022-10-18T01:26:40.737Z,100.00
2022-10-18T01:29:33.369Z,100.00
2022-10-18T01:32:04.236Z,100.00
2022-10-18T01:34:35.889Z,100.00
2022-10-18T01:37:05.117Z,100.00
2022-10-18T01:39:36.325Z,100.00
2022-10-18T01:42:07.548Z,100.00
2022-10-18T01:44:36.581Z,100.00
2022-10-18T01:47:05.613Z,100.00
2022-10-18T01:49:33.314Z,100.00
2022-10-18T01:51:59.724Z,100.00
2022-10-18T01:54:32.603Z,100.00
2022-10-18T01:57:20.123Z,100.00
2022-10-18T01:59:49.165Z,100.00
2022-10-18T02:02:28.947Z,100.00
2022-10-18T02:05:19.627Z,100.00
2022-10-18T02:08:12.079Z,100.00
2022-10-18T02:10:47.956Z,100.00
2022-10-18T02:13:18.197Z,100.00
2022-10-18T02:15:48.502Z,100.00
2022-10-18T02:18:22.019Z,100.00
2022-10-18T02:20:49.400Z,100.00
2022-10-18T02:23:19.887Z,100.00
2022-10-18T02:25:46.603Z,100.00
2022-10-18T02:28:13.093Z,100.00
2022-10-18T02:30:57.671Z,100.00
2022-10-18T02:33:50.077Z,100.00
2022-10-18T02:36:23.803Z,100.00
2022-10-18T02:38:55.741Z,100.00
2022-10-18T02:41:27.055Z,100.00
2022-10-18T02:43:53.956Z,100.00
2022-10-18T02:46:20.650Z,100.00
2022-10-18T02:48:47.076Z,100.00
2022-10-18T02:51:13.462Z,100.00
2022-10-18T02:53:39.896Z,100.00
2022-10-18T02:56:06.494Z,100.00
2022-10-18T02:58:32.869Z,100.00
2022-10-18T03:00:59.320Z,100.00
2022-10-18T03:03:25.666Z,100.00
2022-10-18T03:05:52.664Z,100.00
2022-10-18T03:08:19.713Z,100.00
2022-10-18T03:10:46.940Z,100.00
2022-10-18T03:13:13.474Z,100.00
2022-10-18T03:15:40.095Z,100.00
2022-10-18T03:18:06.483Z,100.00
2022-10-18T03:20:34.096Z,100.00
2022-10-18T03:23:00.447Z,100.00
2022-10-18T03:25:26.868Z,100.00
2022-10-18T03:27:53.197Z,100.00
2022-10-18T03:30:19.605Z,100.00
2022-10-18T03:32:45.945Z,100.00
2022-10-18T03:35:12.293Z,100.00
2022-10-18T03:37:38.726Z,100.00
2022-10-18T03:40:05.782Z,100.00
2022-10-18T03:42:32.253Z,100.00
2022-10-18T03:44:58.725Z,100.00
2022-10-18T03:47:25.067Z,100.00
2022-10-18T03:49:54.639Z,100.00
2022-10-18T03:52:23.581Z,100.00
2022-10-18T03:54:49.910Z,100.00
2022-10-18T03:57:16.493Z,100.00
2022-10-18T03:59:43.369Z,100.00
2022-10-18T04:02:09.784Z,100.00
2022-10-18T04:04:36.180Z,100.00
2022-10-18T04:07:02.521Z,100.00
2022-10-18T04:09:28.889Z,100.00
2022-10-18T04:11:55.217Z,100.00
2022-10-18T04:14:22.002Z,100.00
2022-10-18T04:16:48.606Z,100.00
2022-10-18T04:19:15.631Z,100.00
2022-10-18T04:21:42.001Z,100.00
2022-10-18T04:24:08.419Z,100.00
2022-10-18T04:26:34.867Z,100.00
2022-10-18T04:31:28.945Z,100.00
2022-10-18T04:33:55.341Z,100.00
2022-10-18T04:36:21.696Z,100.00
2022-10-18T04:38:48.060Z,100.00
2022-10-18T04:41:14.438Z,100.00
2022-10-18T04:43:40.824Z,100.00
2022-10-18T04:46:07.221Z,100.00
2022-10-18T04:48:33.577Z,100.00
2022-10-18T04:50:59.982Z,100.00
2022-10-18T04:53:26.363Z,100.00
2022-10-18T04:55:52.741Z,100.00
2022-10-18T04:58:19.439Z,100.00
2022-10-18T05:00:47.531Z,100.00
2022-10-18T05:03:14.647Z,100.00
2022-10-18T05:06:00.201Z,100.00
2022-10-18T05:08:27.961Z,100.00
2022-10-18T05:10:54.388Z,100.00
2022-10-18T05:13:20.826Z,100.00
2022-10-18T05:15:47.517Z,100.00
2022-10-18T05:18:13.876Z,100.00
2022-10-18T05:20:40.226Z,100.00
2022-10-18T05:23:06.678Z,100.00
2022-10-18T05:25:33.266Z,100.00
2022-10-18T05:28:03.415Z,100.00
2022-10-18T05:30:38.582Z,100.00
2022-10-18T05:33:05.694Z,100.00
2022-10-18T05:35:32.385Z,100.00
2022-10-18T05:37:58.736Z,100.00
2022-10-18T05:40:25.083Z,100.00
2022-10-18T05:42:52.015Z,100.00
2022-10-18T05:45:18.359Z,100.00
2022-10-18T05:47:44.896Z,100.00
2022-10-18T05:50:11.294Z,100.00
2022-10-18T05:52:37.634Z,100.00
2022-10-18T05:55:04.293Z,100.00
2022-10-18T05:57:31.002Z,100.00
2022-10-18T05:59:57.533Z,100.00
2022-10-18T06:02:23.893Z,100.00
2022-10-18T06:04:50.305Z,100.00
2022-10-18T06:07:16.827Z,100.00
2022-10-18T06:09:43.229Z,100.00
2022-10-18T06:12:09.781Z,100.00
2022-10-18T06:14:37.435Z,100.00
2022-10-18T06:17:04.391Z,100.00
2022-10-18T06:19:30.893Z,100.00
2022-10-18T06:21:57.272Z,100.00
2022-10-18T06:24:23.767Z,100.00
2022-10-18T06:26:50.283Z,100.00
2022-10-18T06:29:16.654Z,100.00
2022-10-18T06:31:43.024Z,100.00
2022-10-18T06:34:09.365Z,100.00
2022-10-18T06:36:35.712Z,100.00
2022-10-18T06:39:02.588Z,100.00
2022-10-18T06:41:28.958Z,100.00
2022-10-18T06:43:57.438Z,100.00
2022-10-18T06:46:24.396Z,100.00
2022-10-18T06:48:50.751Z,100.00
2022-10-18T06:51:18.227Z,100.00
2022-10-18T06:53:59.214Z,100.00
2022-10-18T06:56:25.998Z,100.00
2022-10-18T06:58:52.594Z,100.00
2022-10-18T07:01:19.671Z,100.00
2022-10-18T07:03:48.166Z,100.00
2022-10-18T07:06:17.700Z,100.00
2022-10-18T07:08:44.580Z,100.00
2022-10-18T07:11:19.902Z,100.00
2022-10-18T07:13:46.324Z,100.00
2022-10-18T07:16:17.461Z,100.00
2022-10-18T07:18:50.963Z,100.00
2022-10-18T07:21:22.565Z,100.00
2022-10-18T07:23:50.473Z,100.00
2022-10-18T07:26:19.584Z,100.00
2022-10-18T07:28:48.157Z,100.00
2022-10-18T07:31:14.885Z,100.00
2022-10-18T07:33:42.946Z,100.00
2022-10-18T07:36:11.683Z,100.00
2022-10-18T07:38:38.190Z,100.00
2022-10-18T07:41:06.993Z,100.00
2022-10-18T07:43:34.374Z,100.00
2022-10-18T07:46:03.262Z,100.00
2022-10-18T07:48:29.864Z,100.00
2022-10-18T07:50:59.721Z,100.00
2022-10-18T07:53:26.470Z,100.00
2022-10-18T07:55:56.331Z,100.00
2022-10-18T07:58:22.663Z,100.00
2022-10-18T08:00:49.002Z,100.00
2022-10-18T08:03:15.358Z,100.00
2022-10-18T08:05:41.699Z,100.00
2022-10-18T08:08:08.265Z,100.00
2022-10-18T08:10:35.991Z,100.00
2022-10-18T08:13:02.317Z,100.00
2022-10-18T08:15:28.658Z,100.00
2022-10-18T08:17:55.003Z,100.00
2022-10-18T08:20:30.411Z,100.00
2022-10-18T08:23:00.099Z,100.00
2022-10-18T08:25:27.908Z,100.00
2022-10-18T08:27:54.335Z,100.00
2022-10-18T08:30:20.772Z,100.00
2022-10-18T08:32:47.122Z,100.00
2022-10-18T08:35:13.511Z,100.00
2022-10-18T08:37:40.288Z,100.00
2022-10-18T08:40:07.242Z,100.00
2022-10-18T08:42:44.296Z,100.00
2022-10-18T08:45:29.747Z,100.00
2022-10-18T08:47:59.206Z,100.00
2022-10-18T08:50:35.281Z,100.00
2022-10-18T08:53:40.187Z,100.00
2022-10-18T08:56:18.775Z,100.00
2022-10-18T08:58:45.231Z,100.00
2022-10-18T09:01:37.745Z,100.00
2022-10-18T09:04:26.882Z,100.00
2022-10-18T09:07:03.170Z,100.00
2022-10-18T09:10:04.446Z,100.00
2022-10-18T09:13:03.613Z,100.00
2022-10-18T09:15:54.189Z,100.00
2022-10-18T09:18:39.209Z,100.00
2022-10-18T09:21:20.200Z,100.00
2022-10-18T09:23:49.366Z,100.00
2022-10-18T09:26:20.765Z,100.00
2022-10-18T09:29:15.916Z,98.34
2022-10-18T09:31:51.443Z,98.14
2022-10-18T09:34:36.590Z,100.00
2022-10-18T09:37:04.262Z,100.00
2022-10-18T09:39:37.283Z,94.54
2022-10-18T09:42:26.740Z,96.51
2022-10-18T09:45:02.023Z,99.52
2022-10-18T09:47:35.387Z,94.18
2022-10-18T09:50:25.333Z,93.69
2022-10-18T09:52:57.367Z,94.16
2022-10-18T09:55:30.667Z,97.08
2022-10-18T09:58:01.971Z,93.53
2022-10-18T10:00:34.487Z,90.58
2022-10-18T10:03:01.782Z,94.49
2022-10-18T10:05:28.198Z,90.69
2022-10-18T10:07:59.904Z,89.44
2022-10-18T10:10:28.527Z,88.82
2022-10-18T10:13:04.070Z,92.26
2022-10-18T10:15:35.278Z,85.93
2022-10-18T10:18:25.600Z,87.69
2022-10-18T10:20:55.037Z,86.75
2022-10-18T10:23:23.160Z,89.34
2022-10-18T10:25:53.292Z,87.16
2022-10-18T10:28:30.562Z,84.84
2022-10-18T10:31:24.904Z,87.30
2022-10-18T10:34:04.476Z,87.22
2022-10-18T10:36:32.425Z,86.15
2022-10-18T10:39:12.558Z,81.18
2022-10-18T10:41:41.253Z,86.41
2022-10-18T10:44:17.107Z,85.13
2022-10-18T10:46:44.481Z,87.25
2022-10-18T10:49:42.016Z,83.99
2022-10-18T10:52:26.955Z,82.40
2022-10-18T10:55:05.675Z,83.48
2022-10-18T10:57:38.507Z,84.55
2022-10-18T11:00:05.242Z,83.02
2022-10-18T11:02:34.975Z,80.50
2022-10-18T11:05:29.229Z,82.77
2022-10-18T11:08:01.976Z,79.06
2022-10-18T11:10:32.362Z,82.35
2022-10-18T11:13:23.730Z,79.00
2022-10-18T11:15:56.580Z,77.45
2022-10-18T11:18:32.556Z,76.38
2022-10-18T11:21:08.144Z,79.84
2022-10-18T11:23:37.260Z,80.50
2022-10-18T11:26:09.465Z,79.92
2022-10-18T11:29:16.155Z,78.12
2022-10-18T11:32:03.296Z,76.37
2022-10-18T11:34:55.643Z,77.08
2022-10-18T11:37:38.510Z,78.23
2022-10-18T11:40:46.309Z,78.29
2022-10-18T11:44:00.532Z,75.17
2022-10-18T11:46:37.596Z,74.52
2022-10-18T11:49:35.749Z,75.56
2022-10-18T11:52:19.858Z,75.74
2022-10-18T11:55:02.829Z,76.56
2022-10-18T11:57:58.696Z,78.67
2022-10-18T12:00:40.503Z,76.08
2022-10-18T12:03:33.441Z,72.99
2022-10-18T12:06:05.671Z,75.76
2022-10-18T12:08:39.850Z,75.68
2022-10-18T12:11:13.789Z,71.82
2022-10-18T12:13:57.689Z,65.68
2022-10-18T12:16:50.038Z,74.91
2022-10-18T12:19:27.300Z,76.74
2022-10-18T12:22:04.125Z,75.09
2022-10-18T12:24:31.918Z,68.37
2022-10-18T12:27:01.803Z,61.21
2022-10-18T12:29:35.630Z,66.89
2022-10-18T12:32:08.807Z,73.96
2022-10-18T12:34:43.501Z,72.50
2022-10-18T12:37:14.967Z,70.88
2022-10-18T12:40:08.975Z,68.40
2022-10-18T12:42:42.733Z,67.52
2022-10-18T12:45:35.359Z,64.81
2022-10-18T12:48:06.805Z,66.86
2022-10-18T12:50:39.294Z,73.30
2022-10-18T12:53:24.378Z,69.80
2022-10-18T12:55:51.833Z,67.38
2022-10-18T12:58:32.339Z,68.99
2022-10-18T13:01:04.628Z,72.43
2022-10-18T13:03:50.379Z,68.68
2022-10-18T13:06:16.887Z,69.47
2022-10-18T13:08:45.276Z,59.38
2022-10-18T13:11:11.616Z,52.74
2022-10-18T13:14:17.264Z,54.86
2022-10-18T13:16:54.232Z,53.14
2022-10-18T13:19:27.741Z,52.16
2022-10-18T13:22:15.597Z,50.01
2022-10-18T13:25:01.614Z,55.84
2022-10-18T13:27:54.283Z,57.95
2022-10-18T13:30:40.759Z,50.36
2022-10-18T13:33:52.351Z,49.13
2022-10-18T13:36:24.834Z,50.57
2022-10-18T13:38:55.559Z,48.31
2022-10-18T13:41:29.253Z,52.01
2022-10-18T13:44:16.533Z,60.34
2022-10-18T13:46:42.918Z,64.48
2022-10-18T13:49:40.381Z,69.75
2022-10-18T13:52:18.934Z,70.42
2022-10-18T13:55:30.870Z,60.21
2022-10-18T13:58:20.220Z,51.16
2022-10-18T14:00:52.628Z,59.15
2022-10-18T14:03:56.170Z,52.70
2022-10-18T14:06:28.164Z,50.93
2022-10-18T14:09:25.378Z,56.64
2022-10-18T14:12:14.701Z,63.38
2022-10-18T14:14:46.126Z,61.49
2022-10-18T14:17:47.641Z,68.59
2022-10-18T14:20:14.882Z,59.98
2022-10-18T14:22:48.056Z,56.30
2022-10-18T14:25:26.403Z,60.57
2022-10-18T14:28:08.958Z,54.75
2022-10-18T14:30:52.679Z,55.52
2022-10-18T14:33:33.471Z,61.93
2022-10-18T14:36:04.186Z,69.15
2022-10-18T14:38:31.142Z,73.11
2022-10-18T14:41:21.698Z,75.79
2022-10-18T14:43:49.139Z,76.83
2022-10-18T14:46:26.625Z,76.72
2022-10-18T14:49:04.065Z,77.09
2022-10-18T14:51:35.283Z,77.48
2022-10-18T14:54:02.454Z,78.21
2022-10-18T14:56:30.814Z,78.20
2022-10-18T14:59:01.799Z,78.47
2022-10-18T15:01:31.213Z,79.07
2022-10-18T15:04:05.180Z,79.09
2022-10-18T15:06:32.846Z,78.55
2022-10-18T15:09:01.801Z,78.96
2022-10-18T15:11:28.731Z,79.58
2022-10-18T15:14:00.669Z,79.70
2022-10-18T15:16:29.646Z,80.07
2022-10-18T15:19:28.740Z,81.21
2022-10-18T15:22:32.190Z,81.25
2022-10-18T15:25:14.812Z,83.03
2022-10-18T15:27:45.059Z,83.10
2022-10-18T15:30:19.278Z,81.81
2022-10-18T15:32:51.809Z,80.43
2022-10-18T15:35:44.574Z,82.51
2022-10-18T15:38:31.843Z,81.27
2022-10-18T15:40:58.594Z,83.61
2022-10-18T15:43:27.821Z,83.11
2022-10-18T15:45:54.133Z,83.02
2022-10-18T15:48:40.137Z,82.49
2022-10-18T15:51:08.857Z,82.90
2022-10-18T15:53:54.281Z,84.28
2022-10-18T15:56:40.022Z,85.48
2022-10-18T15:59:22.220Z,86.95
2022-10-18T16:01:48.857Z,86.36
2022-10-18T16:04:25.761Z,87.04
2022-10-18T16:06:54.121Z,86.12
2022-10-18T16:09:21.837Z,86.55
2022-10-18T16:11:55.587Z,86.64
2022-10-18T16:14:22.905Z,89.93
2022-10-18T16:16:56.045Z,88.21
2022-10-18T16:19:22.805Z,88.71
2022-10-18T16:21:51.320Z,88.57
2022-10-18T16:24:18.208Z,89.00
2022-10-18T16:26:44.750Z,89.74
2022-10-18T16:29:14.365Z,89.61
2022-10-18T16:31:40.952Z,91.63
2022-10-18T16:34:10.740Z,90.25
2022-10-18T16:36:37.677Z,91.07
2022-10-18T16:39:09.195Z,91.78
2022-10-18T16:41:35.567Z,91.14
2022-10-18T16:44:01.936Z,90.99
2022-10-18T16:46:31.125Z,91.36
2022-10-18T16:48:57.686Z,90.55
2022-10-18T16:51:24.654Z,89.99
2022-10-18T16:53:53.299Z,91.31
2022-10-18T16:56:22.598Z,90.91
2022-10-18T16:58:49.210Z,91.27
2022-10-18T17:01:18.912Z,91.66
2022-10-18T17:03:46.037Z,91.73
2022-10-18T17:06:21.530Z,92.04
2022-10-18T17:08:48.649Z,92.86
2022-10-18T17:11:16.305Z,92.44
2022-10-18T17:13:43.328Z,93.37
2022-10-18T17:16:36.755Z,92.02
2022-10-18T17:19:05.876Z,94.12
2022-10-18T17:21:33.472Z,93.62
2022-10-18T17:24:04.478Z,93.21
2022-10-18T17:26:31.624Z,92.29
2022-10-18T17:29:00.963Z,92.39
2022-10-18T17:31:28.738Z,92.73
2022-10-18T17:33:55.318Z,94.28
2022-10-18T17:36:22.327Z,94.08
2022-10-18T17:38:55.466Z,94.63
2022-10-18T17:41:22.361Z,95.06
2022-10-18T17:43:48.918Z,97.63
2022-10-18T17:46:15.933Z,96.66
2022-10-18T17:48:42.782Z,96.47
2022-10-18T17:51:11.517Z,95.34
2022-10-18T17:53:38.135Z,95.69
2022-10-18T17:56:05.627Z,94.82
2022-10-18T17:58:32.146Z,94.51
2022-10-18T18:01:14.801Z,95.25
2022-10-18T18:03:42.117Z,95.48
2022-10-18T18:06:16.704Z,95.46
2022-10-18T18:08:43.968Z,95.28
2022-10-18T18:11:10.328Z,95.39
2022-10-18T18:13:36.740Z,96.64
2022-10-18T18:16:20.663Z,97.44
2022-10-18T18:18:49.566Z,97.33
2022-10-18T18:21:16.418Z,97.21
2022-10-18T18:23:43.018Z,97.26
2022-10-18T18:26:09.558Z,97.45
2022-10-18T18:28:36.670Z,97.77
2022-10-18T18:31:12.744Z,97.93
2022-10-18T18:33:39.302Z,97.89
2022-10-18T18:36:06.740Z,97.75
2022-10-18T18:38:35.314Z,98.27
2022-10-18T18:41:07.204Z,98.00
2022-10-18T18:43:34.731Z,98.14
2022-10-18T18:46:01.281Z,97.96
2022-10-18T18:48:28.690Z,97.49
2022-10-18T18:50:55.255Z,97.28
2022-10-18T18:53:23.329Z,97.25
2022-10-18T18:55:52.053Z,97.61
2022-10-18T18:58:18.951Z,98.23
2022-10-18T19:00:45.515Z,98.51
2022-10-18T19:03:12.437Z,98.93
2022-10-18T19:05:38.874Z,99.97
2022-10-18T19:08:05.892Z,100.00
2022-10-18T19:10:32.384Z,100.00
2022-10-18T19:12:58.931Z,99.74
2022-10-18T19:15:25.617Z,99.85
2022-10-18T19:17:52.043Z,100.00
2022-10-18T19:20:18.472Z,99.47
2022-10-18T19:22:45.455Z,98.83
2022-10-18T19:25:11.881Z,100.00
2022-10-18T19:27:38.413Z,99.46
2022-10-18T19:30:08.680Z,98.23
2022-10-18T19:32:35.230Z,98.10
2022-10-18T19:35:01.589Z,98.52
2022-10-18T19:37:28.019Z,98.56
2022-10-18T19:39:54.372Z,98.87
2022-10-18T19:42:26.169Z,99.07
2022-10-18T19:44:53.905Z,99.43
2022-10-18T19:47:20.522Z,100.00
2022-10-18T19:49:47.953Z,100.00
2022-10-18T19:52:14.412Z,100.00
2022-10-18T19:54:40.844Z,100.00
2022-10-18T19:57:07.772Z,100.00
2022-10-18T19:59:35.942Z,100.00
2022-10-18T20:02:04.651Z,100.00
2022-10-18T20:04:34.358Z,100.00
2022-10-18T20:07:02.566Z,100.00
2022-10-18T20:09:29.158Z,100.00
2022-10-18T20:11:55.564Z,100.00
2022-10-18T20:14:21.998Z,100.00
2022-10-18T20:16:48.401Z,100.00
2022-10-18T20:19:14.796Z,100.00
2022-10-18T20:21:41.183Z,100.00
2022-10-18T20:24:07.743Z,100.00
2022-10-18T20:26:35.707Z,100.00
2022-10-18T20:29:02.397Z,100.00
2022-10-18T20:31:35.388Z,100.00
2022-10-18T20:34:04.105Z,100.00
2022-10-18T20:36:32.160Z,100.00
2022-10-18T20:38:59.390Z,100.00
2022-10-18T20:41:32.241Z,100.00
2022-10-18T20:44:04.090Z,100.00
2022-10-18T20:46:32.590Z,100.00
2022-10-18T20:48:59.187Z,100.00
2022-10-18T20:51:25.645Z,100.00
2022-10-18T20:53:52.222Z,100.00
2022-10-18T20:56:25.193Z,100.00
2022-10-18T20:58:54.902Z,100.00
2022-10-18T21:01:24.100Z,100.00
2022-10-18T21:03:52.710Z,100.00
2022-10-18T21:06:22.100Z,100.00
2022-10-18T21:08:53.650Z,100.00
2022-10-18T21:11:20.271Z,100.00
2022-10-18T21:13:51.435Z,100.00
2022-10-18T21:16:17.910Z,100.00
2022-10-18T21:18:44.335Z,100.00
2022-10-18T21:21:16.879Z,100.00
2022-10-18T21:23:43.818Z,100.00
2022-10-18T21:26:15.550Z,100.00
2022-10-18T21:28:41.968Z,100.00
2022-10-18T21:31:17.224Z,100.00
2022-10-18T21:33:45.343Z,100.00
2022-10-18T21:36:12.393Z,100.00
2022-10-18T21:38:39.083Z,100.00
2022-10-18T21:41:10.514Z,100.00
2022-10-18T21:43:40.847Z,100.00
2022-10-18T21:46:08.096Z,100.00
2022-10-18T21:48:34.778Z,100.00
2022-10-18T21:51:08.697Z,100.00
2022-10-18T21:53:36.257Z,100.00
2022-10-18T21:56:11.753Z,100.00
2022-10-18T21:58:39.090Z,100.00
2022-10-18T22:01:13.026Z,100.00
2022-10-18T22:03:40.109Z,100.00
2022-10-18T22:06:13.278Z,100.00
2022-10-18T22:08:40.953Z,100.00
2022-10-18T22:11:07.359Z,100.00
2022-10-18T22:13:33.802Z,100.00
2022-10-18T22:16:04.832Z,100.00
2022-10-18T22:18:32.252Z,100.00
2022-10-18T22:21:01.776Z,100.00
2022-10-18T22:23:39.667Z,100.00
2022-10-18T22:26:09.619Z,100.00
2022-10-18T22:28:36.132Z,100.00
2022-10-18T22:31:02.717Z,100.00
2022-10-18T22:33:29.229Z,100.00
2022-10-18T22:35:55.649Z,100.00
2022-10-18T22:38:22.122Z,100.00
2022-10-18T22:40:48.870Z,100.00
2022-10-18T22:43:15.238Z,100.00
2022-10-18T22:45:41.786Z,100.00
2022-10-18T22:48:08.150Z,100.00
2022-10-18T22:50:34.513Z,100.00
2022-10-18T22:53:00.891Z,100.00
2022-10-18T22:55:27.282Z,100.00
2022-10-18T22:57:55.441Z,100.00
2022-10-18T23:00:21.901Z,100.00
2022-10-18T23:02:51.431Z,100.00
2022-10-18T23:05:17.803Z,100.00
2022-10-18T23:07:48.114Z,100.00
2022-10-18T23:10:15.062Z,100.00
2022-10-18T23:12:41.480Z,100.00
2022-10-18T23:15:08.239Z,100.00
2022-10-18T23:17:34.835Z,100.00
2022-10-18T23:20:01.471Z,100.00
2022-10-18T23:22:27.815Z,100.00
2022-10-18T23:24:54.195Z,100.00
2022-10-18T23:27:20.543Z,100.00
2022-10-18T23:29:46.884Z,100.00
2022-10-18T23:32:13.249Z,100.00
2022-10-18T23:34:39.597Z,100.00
2022-10-18T23:37:05.940Z,100.00
2022-10-18T23:39:32.342Z,100.00
2022-10-18T23:41:58.676Z,100.00
2022-10-18T23:44:25.035Z,100.00
2022-10-18T23:46:51.407Z,100.00
2022-10-18T23:49:17.807Z,100.00
2022-10-18T23:51:44.180Z,100.00
2022-10-18T23:54:10.529Z,100.00
2022-10-18T23:56:36.869Z,100.00
2022-10-18T23:59:03.209Z,100.00
